createdAt,value
2022-11-23T00:02:02.035Z,2.60
2022-11-23T00:04:30.113Z,2.60
2022-11-23T00:06:58.147Z,2.50
2022-11-23T00:09:26.160Z,2.60
2022-11-23T00:11:54.181Z,2.60
2022-11-23T00:14:23.560Z,2.60
2022-11-23T00:16:51.594Z,2.60
2022-11-23T00:19:19.550Z,2.60
2022-11-23T00:21:47.574Z,2.60
2022-11-23T00:24:15.577Z,2.70
2022-11-23T00:26:43.610Z,2.60
2022-11-23T00:29:11.688Z,2.60
2022-11-23T00:31:42.493Z,2.70
2022-11-23T00:34:10.504Z,2.60
2022-11-23T00:36:38.504Z,2.70
2022-11-23T00:39:06.538Z,2.70
2022-11-23T00:41:34.541Z,2.70
2022-11-23T00:44:03.538Z,2.70
2022-11-23T00:46:31.597Z,2.70
2022-11-23T00:49:01.774Z,2.70
2022-11-23T00:51:30.986Z,2.70
2022-11-23T00:53:59.692Z,2.70
2022-11-23T00:56:28.257Z,2.70
2022-11-23T00:58:57.092Z,2.70
2022-11-23T01:01:25.953Z,2.70
2022-11-23T01:03:58.211Z,2.80
2022-11-23T01:06:32.169Z,2.80
2022-11-23T01:09:01.217Z,2.80
2022-11-23T01:11:30.995Z,2.80
2022-11-23T01:13:59.046Z,2.80
2022-11-23T01:16:28.181Z,2.80
2022-11-23T01:18:56.340Z,2.80
2022-11-23T01:21:24.673Z,2.80
2022-11-23T01:23:54.067Z,2.70
2022-11-23T01:26:22.186Z,2.80
2022-11-23T01:28:50.342Z,2.90
2022-11-23T01:31:19.292Z,2.80
2022-11-23T01:33:47.460Z,2.80
2022-11-23T01:36:16.487Z,2.80
2022-11-23T01:38:45.319Z,2.80
2022-11-23T01:41:15.744Z,2.80
2022-11-23T01:43:43.785Z,2.80
2022-11-23T01:46:12.263Z,2.80
2022-11-23T01:48:41.768Z,2.80
2022-11-23T01:51:11.814Z,2.80
2022-11-23T01:53:39.871Z,2.80
2022-11-23T01:56:08.804Z,2.80
2022-11-23T01:58:39.542Z,2.80
2022-11-23T02:01:07.840Z,2.80
2022-11-23T02:03:36.284Z,2.70
2022-11-23T02:06:10.885Z,2.70
2022-11-23T02:08:41.717Z,2.80
2022-11-23T02:11:09.769Z,2.80
2022-11-23T02:13:39.143Z,2.80
2022-11-23T02:16:08.968Z,2.80
2022-11-23T02:18:37.158Z,2.90
2022-11-23T02:21:05.576Z,2.80
2022-11-23T02:23:35.952Z,2.80
2022-11-23T02:26:06.207Z,2.80
2022-11-23T02:28:36.450Z,2.80
2022-11-23T02:31:04.472Z,2.70
2022-11-23T02:33:32.513Z,2.70
2022-11-23T02:36:01.441Z,2.80
2022-11-23T02:38:32.687Z,2.80
2022-11-23T02:41:01.580Z,2.80
2022-11-23T02:43:30.981Z,2.80
2022-11-23T02:46:00.106Z,2.80
2022-11-23T02:48:28.171Z,2.90
2022-11-23T02:50:56.192Z,2.80
2022-11-23T02:53:25.434Z,2.80
2022-11-23T02:55:55.551Z,2.80
2022-11-23T02:58:25.708Z,2.80
2022-11-23T03:00:55.144Z,2.80
2022-11-23T03:03:23.829Z,2.70
2022-11-23T03:05:51.844Z,2.70
2022-11-23T03:08:20.366Z,2.70
2022-11-23T03:10:49.228Z,2.70
2022-11-23T03:13:17.286Z,2.70
2022-11-23T03:15:45.577Z,2.70
2022-11-23T03:18:14.984Z,2.70
2022-11-23T03:20:43.052Z,2.80
2022-11-23T03:23:11.086Z,2.80
2022-11-23T03:25:40.620Z,2.80
2022-11-23T03:28:09.624Z,2.80
2022-11-23T03:30:38.295Z,2.80
2022-11-23T03:33:08.039Z,2.80
2022-11-23T03:35:38.966Z,2.70
2022-11-23T03:38:22.107Z,2.70
2022-11-23T03:40:50.133Z,2.70
2022-11-23T03:43:35.608Z,2.80
2022-11-23T03:46:03.649Z,2.80
2022-11-23T03:48:31.688Z,2.70
2022-11-23T03:51:01.065Z,2.80
2022-11-23T03:53:29.133Z,2.80
2022-11-23T03:55:58.257Z,2.80
2022-11-23T03:58:29.218Z,2.80
2022-11-23T04:00:57.264Z,2.80
2022-11-23T04:03:25.327Z,2.80
2022-11-23T04:06:20.526Z,2.80
2022-11-23T04:09:02.462Z,2.80
2022-11-23T04:11:49.120Z,2.90
2022-11-23T04:14:17.322Z,2.90
2022-11-23T04:16:45.391Z,2.90
2022-11-23T04:19:13.430Z,2.90
2022-11-23T04:21:42.841Z,2.90
2022-11-23T04:24:11.331Z,2.90
2022-11-23T04:26:41.240Z,2.90
2022-11-23T04:29:11.177Z,2.90
2022-11-23T04:31:42.935Z,2.80
2022-11-23T04:34:16.284Z,2.80
2022-11-23T04:36:45.674Z,2.80
2022-11-23T04:39:14.928Z,2.80
2022-11-23T04:41:56.191Z,2.80
2022-11-23T04:44:24.238Z,2.80
2022-11-23T04:46:58.611Z,2.80
2022-11-23T04:49:27.241Z,2.70
2022-11-23T04:51:57.028Z,2.70
2022-11-23T04:54:32.311Z,2.80
2022-11-23T04:57:03.096Z,2.70
2022-11-23T04:59:31.349Z,2.70
2022-11-23T05:02:00.352Z,2.70
2022-11-23T05:04:47.206Z,2.70
2022-11-23T05:07:18.595Z,2.70
2022-11-23T05:09:53.712Z,2.80
2022-11-23T05:12:22.819Z,2.70
2022-11-23T05:14:51.639Z,2.70
2022-11-23T05:17:24.722Z,2.70
2022-11-23T05:19:55.871Z,2.70
2022-11-23T05:22:25.827Z,2.70
2022-11-23T05:24:54.726Z,2.70
2022-11-23T05:27:25.193Z,2.70
2022-11-23T05:29:53.266Z,2.70
2022-11-23T05:32:21.495Z,2.70
2022-11-23T05:34:50.096Z,2.70
2022-11-23T05:37:19.829Z,2.70
2022-11-23T05:39:55.793Z,2.70
2022-11-23T05:42:24.901Z,2.70
2022-11-23T05:44:56.501Z,2.80
2022-11-23T05:47:33.168Z,2.70
2022-11-23T05:50:01.387Z,2.70
2022-11-23T05:52:31.910Z,2.70
2022-11-23T05:55:01.344Z,2.80
2022-11-23T05:57:30.479Z,2.80
2022-11-23T05:59:58.571Z,2.80
2022-11-23T06:02:41.364Z,2.80
2022-11-23T06:05:10.631Z,2.80
2022-11-23T06:07:47.019Z,2.80
2022-11-23T06:10:17.607Z,2.80
2022-11-23T06:12:50.060Z,2.80
2022-11-23T06:15:19.690Z,2.80
2022-11-23T06:17:49.100Z,2.80
2022-11-23T06:20:21.640Z,2.70
2022-11-23T06:22:58.120Z,2.80
2022-11-23T06:25:28.595Z,2.80
2022-11-23T06:28:02.282Z,2.80
2022-11-23T06:30:39.018Z,2.80
2022-11-23T06:33:08.673Z,2.90
2022-11-23T06:35:52.696Z,2.90
2022-11-23T06:38:20.800Z,2.80
2022-11-23T06:40:58.276Z,2.80
2022-11-23T06:43:26.560Z,2.80
2022-11-23T06:45:55.064Z,2.80
2022-11-23T06:48:25.078Z,2.80
2022-11-23T06:50:53.096Z,2.80
2022-11-23T06:53:24.620Z,2.90
2022-11-23T06:56:01.050Z,2.90
2022-11-23T06:58:30.943Z,2.90
2022-11-23T07:01:01.532Z,2.90
2022-11-23T07:03:32.648Z,2.90
2022-11-23T07:06:07.302Z,3.00
2022-11-23T07:08:35.847Z,3.00
2022-11-23T07:11:19.141Z,3.00
2022-11-23T07:13:48.110Z,3.00
2022-11-23T07:16:16.159Z,3.00
2022-11-23T07:18:44.351Z,3.00
2022-11-23T07:21:12.409Z,3.00
2022-11-23T07:23:41.631Z,3.00
2022-11-23T07:26:10.256Z,3.00
2022-11-23T07:28:39.686Z,3.00
2022-11-23T07:31:08.111Z,3.00
2022-11-23T07:33:36.196Z,3.00
2022-11-23T07:36:04.759Z,3.00
2022-11-23T07:38:33.451Z,3.00
2022-11-23T07:41:03.811Z,3.10
2022-11-23T07:44:08.570Z,3.00
2022-11-23T07:46:36.810Z,3.10
2022-11-23T07:49:04.842Z,3.10
2022-11-23T07:51:32.853Z,3.10
2022-11-23T07:54:00.905Z,3.20
2022-11-23T07:56:29.039Z,3.10
2022-11-23T07:58:57.090Z,3.10
2022-11-23T08:01:26.481Z,3.10
2022-11-23T08:03:54.506Z,3.10
2022-11-23T08:06:22.524Z,3.20
2022-11-23T08:08:50.648Z,3.20
2022-11-23T08:11:19.658Z,3.20
2022-11-23T08:13:47.683Z,3.30
2022-11-23T08:16:15.870Z,3.30
2022-11-23T08:18:45.223Z,3.40
2022-11-23T08:21:13.241Z,3.40
2022-11-23T08:23:41.248Z,3.40
2022-11-23T08:26:13.652Z,3.50
2022-11-23T08:28:42.082Z,3.50
2022-11-23T08:31:10.140Z,3.50
2022-11-23T08:33:38.165Z,3.50
2022-11-23T08:36:08.805Z,3.60
2022-11-23T08:38:36.872Z,3.60
2022-11-23T08:41:05.604Z,3.60
2022-11-23T08:43:33.613Z,3.70
2022-11-23T08:46:04.836Z,3.70
2022-11-23T08:48:36.065Z,3.80
2022-11-23T08:51:04.275Z,3.80
2022-11-23T08:53:33.644Z,3.80
2022-11-23T08:56:02.505Z,3.80
2022-11-23T08:58:30.516Z,3.80
2022-11-23T09:00:58.569Z,3.80
2022-11-23T09:03:26.607Z,3.90
2022-11-23T09:05:54.765Z,3.90
2022-11-23T09:08:22.820Z,4.00
2022-11-23T09:10:52.204Z,4.00
2022-11-23T09:13:20.227Z,4.00
2022-11-23T09:15:48.260Z,4.10
2022-11-23T09:18:16.270Z,4.10
2022-11-23T09:20:44.307Z,4.20
2022-11-23T09:23:14.348Z,4.10
2022-11-23T09:25:43.348Z,4.10
2022-11-23T09:28:12.992Z,4.20
2022-11-23T09:30:41.032Z,4.20
2022-11-23T09:33:09.251Z,4.20
2022-11-23T09:35:43.483Z,4.20
2022-11-23T09:38:11.886Z,4.20
2022-11-23T09:40:40.609Z,4.30
2022-11-23T09:43:36.558Z,4.30
2022-11-23T09:46:08.536Z,4.30
2022-11-23T09:48:43.240Z,4.40
2022-11-23T09:51:15.388Z,4.40
2022-11-23T09:53:45.874Z,4.40
2022-11-23T09:56:18.089Z,4.50
2022-11-23T09:58:47.688Z,4.50
2022-11-23T10:01:16.650Z,4.50
2022-11-23T10:03:48.749Z,4.60
2022-11-23T10:06:21.386Z,4.60
2022-11-23T10:08:59.423Z,4.70
2022-11-23T10:11:37.270Z,4.80
2022-11-23T10:14:13.133Z,4.90
2022-11-23T10:16:45.886Z,4.90
2022-11-23T10:19:17.069Z,5.00
2022-11-23T10:21:47.581Z,5.10
2022-11-23T10:24:20.207Z,5.20
2022-11-23T10:26:49.269Z,5.30
2022-11-23T10:29:26.013Z,5.40
2022-11-23T10:31:57.002Z,5.80
2022-11-23T10:34:42.049Z,5.80
2022-11-23T10:37:11.316Z,5.80
2022-11-23T10:39:39.349Z,5.80
2022-11-23T10:42:15.598Z,5.70
2022-11-23T10:44:47.076Z,5.70
2022-11-23T10:47:21.632Z,5.70
2022-11-23T10:49:59.653Z,5.80
2022-11-23T10:52:29.058Z,5.70
2022-11-23T10:54:57.490Z,5.70
2022-11-23T10:57:32.573Z,5.80
2022-11-23T11:00:03.409Z,5.80
2022-11-23T11:02:31.693Z,5.70
2022-11-23T11:05:46.032Z,5.80
2022-11-23T11:08:14.626Z,5.90
2022-11-23T11:10:43.354Z,5.90
2022-11-23T11:13:25.032Z,5.90
2022-11-23T11:15:55.778Z,6.00
2022-11-23T11:18:26.242Z,6.00
2022-11-23T11:20:58.362Z,6.10
2022-11-23T11:23:26.630Z,6.10
2022-11-23T11:26:04.766Z,6.10
2022-11-23T11:28:36.478Z,6.20
2022-11-23T11:31:28.386Z,6.20
2022-11-23T11:33:59.955Z,6.20
2022-11-23T11:36:29.401Z,6.30
2022-11-23T11:39:18.862Z,6.30
2022-11-23T11:41:45.426Z,6.30
2022-11-23T11:44:17.212Z,6.40
2022-11-23T11:46:48.576Z,6.50
2022-11-23T11:49:18.466Z,6.60
2022-11-23T11:51:47.842Z,6.60
2022-11-23T11:54:20.058Z,6.60
2022-11-23T11:56:48.763Z,6.70
2022-11-23T11:59:19.223Z,6.70
2022-11-23T12:01:55.785Z,6.70
2022-11-23T12:04:27.625Z,6.80
2022-11-23T12:06:58.060Z,6.70
2022-11-23T12:09:28.302Z,6.70
2022-11-23T12:11:56.465Z,6.80
2022-11-23T12:14:24.472Z,6.80
2022-11-23T12:17:24.841Z,6.70
2022-11-23T12:19:46.277Z,6.80
2022-11-23T12:22:26.593Z,6.80
2022-11-23T12:25:22.055Z,6.80
2022-11-23T12:27:56.675Z,6.90
2022-11-23T12:30:26.339Z,6.90
2022-11-23T12:33:04.608Z,6.90
2022-11-23T12:35:56.838Z,7.00
2022-11-23T12:38:31.174Z,7.00
2022-11-23T12:41:15.678Z,6.90
2022-11-23T12:43:51.309Z,7.00
2022-11-23T12:46:20.285Z,6.90
2022-11-23T12:49:02.415Z,6.90
2022-11-23T12:51:35.849Z,7.00
2022-11-23T12:54:19.395Z,7.00
2022-11-23T12:56:56.380Z,6.90
2022-11-23T12:59:24.811Z,7.00
2022-11-23T13:01:53.773Z,7.00
2022-11-23T13:04:43.780Z,7.00
2022-11-23T13:07:50.643Z,7.00
2022-11-23T13:10:31.803Z,6.90
2022-11-23T13:13:17.447Z,6.90
2022-11-23T13:16:01.111Z,6.90
2022-11-23T13:18:37.884Z,6.80
2022-11-23T13:21:15.412Z,6.80
2022-11-23T13:23:43.419Z,6.80
2022-11-23T13:26:15.640Z,6.80
2022-11-23T13:28:43.812Z,6.80
2022-11-23T13:31:26.134Z,6.70
2022-11-23T13:33:55.900Z,6.70
2022-11-23T13:37:11.660Z,6.70
2022-11-23T13:40:03.763Z,6.70
2022-11-23T13:42:33.344Z,6.60
2022-11-23T13:45:27.341Z,6.70
2022-11-23T13:48:34.311Z,6.60
2022-11-23T13:51:02.040Z,6.50
2022-11-23T13:53:33.273Z,6.50
2022-11-23T13:56:34.100Z,6.50
2022-11-23T13:59:32.431Z,6.40
2022-11-23T14:02:28.273Z,6.40
2022-11-23T14:05:29.963Z,6.30
2022-11-23T14:07:58.210Z,6.30
2022-11-23T14:10:27.607Z,6.30
2022-11-23T14:12:57.000Z,6.30
2022-11-23T14:15:25.835Z,6.30
2022-11-23T14:18:18.840Z,6.30
2022-11-23T14:20:56.719Z,6.30
2022-11-23T14:23:50.270Z,6.20
2022-11-23T14:26:26.947Z,6.20
2022-11-23T14:29:06.168Z,6.10
2022-11-23T14:31:39.221Z,6.00
2022-11-23T14:34:11.981Z,5.90
2022-11-23T14:36:42.704Z,5.90
2022-11-23T14:39:38.107Z,5.90
2022-11-23T14:42:12.255Z,5.70
2022-11-23T14:44:40.845Z,5.70
2022-11-23T14:47:09.715Z,5.60
2022-11-23T14:49:37.967Z,5.60
2022-11-23T14:52:06.210Z,5.60
2022-11-23T14:54:34.468Z,5.50
2022-11-23T14:57:03.994Z,5.50
2022-11-23T14:59:34.083Z,5.50
2022-11-23T15:02:03.135Z,5.40
2022-11-23T15:04:35.087Z,5.30
2022-11-23T15:07:05.318Z,5.30
2022-11-23T15:09:44.075Z,5.30
2022-11-23T15:12:22.336Z,5.30
2022-11-23T15:14:51.813Z,5.20
2022-11-23T15:17:20.792Z,5.10
2022-11-23T15:19:56.331Z,5.10
2022-11-23T15:22:25.291Z,5.10
2022-11-23T15:24:53.473Z,4.90
2022-11-23T15:27:25.190Z,4.90
2022-11-23T15:29:55.499Z,4.90
2022-11-23T15:32:31.425Z,4.80
2022-11-23T15:35:02.243Z,4.80
2022-11-23T15:37:30.281Z,4.80
2022-11-23T15:39:58.295Z,4.80
2022-11-23T15:42:26.846Z,4.80
2022-11-23T15:44:56.204Z,4.80
2022-11-23T15:47:27.554Z,4.80
2022-11-23T15:49:58.820Z,4.80
2022-11-23T15:52:26.850Z,4.70
2022-11-23T15:54:54.897Z,4.70
2022-11-23T15:57:24.595Z,4.70
2022-11-23T15:59:57.431Z,4.70
2022-11-23T16:02:26.689Z,4.60
2022-11-23T16:05:05.459Z,4.50
2022-11-23T16:07:33.550Z,4.50
2022-11-23T16:10:15.611Z,4.60
2022-11-23T16:12:48.862Z,4.40
2022-11-23T16:15:49.170Z,4.40
2022-11-23T16:18:22.611Z,4.40
2022-11-23T16:20:52.246Z,4.40
2022-11-23T16:23:22.032Z,4.30
2022-11-23T16:25:54.836Z,4.40
2022-11-23T16:28:25.912Z,4.30
2022-11-23T16:30:55.358Z,4.30
2022-11-23T16:33:23.468Z,4.30
2022-11-23T16:35:51.523Z,4.20
2022-11-23T16:38:19.784Z,4.20
2022-11-23T16:40:48.226Z,4.30
2022-11-23T16:43:16.552Z,4.20
2022-11-23T16:45:45.460Z,4.20
2022-11-23T16:51:06.246Z,4.20
2022-11-23T16:53:53.365Z,4.20
2022-11-23T16:56:23.471Z,4.20
2022-11-23T16:58:51.643Z,4.20
2022-11-23T17:01:20.825Z,4.20
2022-11-23T17:03:48.908Z,4.20
2022-11-23T17:06:18.469Z,4.20
2022-11-23T17:08:46.564Z,4.10
2022-11-23T17:11:15.566Z,4.00
2022-11-23T17:13:43.667Z,4.10
2022-11-23T17:16:14.491Z,4.10
2022-11-23T17:18:42.564Z,4.10
2022-11-23T17:21:10.582Z,4.10
2022-11-23T17:23:40.953Z,4.10
2022-11-23T17:26:09.069Z,4.10
2022-11-23T17:28:37.099Z,4.10
2022-11-23T17:31:05.166Z,4.10
2022-11-23T17:33:33.214Z,4.00
2022-11-23T17:36:01.222Z,4.10
2022-11-23T17:38:29.256Z,4.00
2022-11-23T17:40:58.616Z,3.90
2022-11-23T17:43:26.643Z,3.90
2022-11-23T17:45:54.674Z,4.00
2022-11-23T17:48:22.738Z,3.90
2022-11-23T17:50:51.142Z,3.90
2022-11-23T17:53:24.121Z,3.90
2022-11-23T17:55:53.444Z,3.90
2022-11-23T17:58:22.854Z,3.90
2022-11-23T18:00:50.864Z,3.90
2022-11-23T18:03:18.929Z,3.90
2022-11-23T18:05:47.119Z,3.80
2022-11-23T18:08:15.155Z,3.90
2022-11-23T18:10:43.360Z,3.90
2022-11-23T18:13:11.392Z,3.90
2022-11-23T18:15:40.778Z,3.90
2022-11-23T18:18:08.830Z,3.90
2022-11-23T18:20:36.866Z,3.90
2022-11-23T18:23:04.918Z,4.00
2022-11-23T18:25:32.926Z,3.90
2022-11-23T18:28:00.948Z,4.00
2022-11-23T18:30:29.191Z,4.00
2022-11-23T18:32:58.597Z,4.00
2022-11-23T18:35:26.612Z,4.00
2022-11-23T18:37:54.691Z,4.00
2022-11-23T18:40:22.708Z,4.00
2022-11-23T18:42:50.922Z,4.00
2022-11-23T18:45:18.936Z,4.00
2022-11-23T18:47:46.961Z,4.00
2022-11-23T18:50:16.419Z,4.00
2022-11-23T18:52:44.479Z,4.00
2022-11-23T18:55:12.501Z,4.00
2022-11-23T18:57:40.527Z,4.00
2022-11-23T19:00:10.189Z,4.00
2022-11-23T19:02:38.876Z,4.00
2022-11-23T19:05:07.869Z,4.00
2022-11-23T19:07:37.297Z,4.00
2022-11-23T19:10:05.842Z,4.00
2022-11-23T19:12:33.847Z,4.00
2022-11-23T19:15:02.654Z,4.00
2022-11-23T19:17:30.696Z,4.10
2022-11-23T19:19:58.754Z,4.00
2022-11-23T19:22:27.182Z,4.00
2022-11-23T19:24:56.551Z,4.00
2022-11-23T19:27:24.644Z,4.10
2022-11-23T19:29:52.656Z,4.00
2022-11-23T19:32:20.684Z,4.00
2022-11-23T19:34:48.714Z,4.10
2022-11-23T19:37:16.757Z,4.10
2022-11-23T19:39:44.770Z,4.10
2022-11-23T19:42:14.162Z,4.10
2022-11-23T19:44:42.169Z,4.10
2022-11-23T19:47:15.352Z,4.10
2022-11-23T19:49:45.728Z,4.20
2022-11-23T19:52:13.759Z,4.20
2022-11-23T19:54:41.762Z,4.20
2022-11-23T19:57:09.982Z,4.20
2022-11-23T19:59:39.339Z,4.20
2022-11-23T20:02:07.467Z,4.20
2022-11-23T20:04:35.562Z,4.10
2022-11-23T20:07:03.646Z,4.10
2022-11-23T20:09:31.822Z,4.10
2022-11-23T20:12:00.474Z,4.10
2022-11-23T20:14:28.483Z,4.10
2022-11-23T20:16:57.848Z,4.20
2022-11-23T20:19:25.887Z,4.10
2022-11-23T20:21:54.289Z,4.10
2022-11-23T20:24:22.319Z,4.10
2022-11-23T20:26:50.333Z,4.10
2022-11-23T20:29:18.646Z,4.20
2022-11-23T20:31:46.746Z,4.10
2022-11-23T20:34:20.612Z,4.10
2022-11-23T20:36:51.005Z,4.10
2022-11-23T20:39:19.360Z,4.10
2022-11-23T20:41:49.708Z,4.10
2022-11-23T20:44:17.822Z,4.20
2022-11-23T20:47:01.126Z,4.10
2022-11-23T20:49:32.126Z,4.10
2022-11-23T20:52:00.220Z,4.10
2022-11-23T20:54:28.303Z,4.10
2022-11-23T20:56:58.170Z,4.10
2022-11-23T20:59:26.210Z,4.10
2022-11-23T21:01:54.283Z,4.10
2022-11-23T21:04:22.326Z,4.10
2022-11-23T21:06:52.035Z,4.10
2022-11-23T21:09:20.072Z,4.10
2022-11-23T21:12:05.448Z,4.10
2022-11-23T21:14:34.188Z,4.10
2022-11-23T21:17:02.683Z,4.10
2022-11-23T21:19:31.550Z,4.10
2022-11-23T21:22:03.523Z,4.10
2022-11-23T21:24:32.018Z,4.10
2022-11-23T21:27:00.344Z,4.10
2022-11-23T21:29:28.415Z,4.20
2022-11-23T21:31:56.427Z,4.10
2022-11-23T21:34:25.938Z,4.20
2022-11-23T21:36:54.174Z,4.20
2022-11-23T21:39:23.775Z,4.20
2022-11-23T21:41:53.630Z,4.10
2022-11-23T21:44:22.202Z,4.10
2022-11-23T21:46:50.417Z,4.10
2022-11-23T21:49:18.488Z,4.10
2022-11-23T21:51:46.655Z,4.10
2022-11-23T21:54:16.039Z,4.10
2022-11-23T21:56:45.900Z,4.10
2022-11-23T21:59:13.993Z,4.20
2022-11-23T22:01:42.509Z,4.20
2022-11-23T22:04:11.424Z,4.20
2022-11-23T22:06:39.669Z,4.20
2022-11-23T22:09:09.484Z,4.20
2022-11-23T22:11:38.301Z,4.20
2022-11-23T22:14:08.412Z,4.20
2022-11-23T22:16:37.102Z,4.10
2022-11-23T22:19:05.205Z,4.20
2022-11-23T22:21:34.023Z,4.20
2022-11-23T22:24:02.068Z,4.10
2022-11-23T22:26:30.087Z,4.10
2022-11-23T22:29:02.392Z,4.10
2022-11-23T22:31:33.192Z,4.20
2022-11-23T22:34:01.557Z,4.20
2022-11-23T22:36:29.636Z,4.20
2022-11-23T22:39:01.724Z,4.20
2022-11-23T22:41:30.434Z,4.10
2022-11-23T22:43:58.479Z,4.10
2022-11-23T22:46:26.548Z,4.20
2022-11-23T22:48:59.410Z,4.20
2022-11-23T22:51:28.545Z,4.20
2022-11-23T22:53:56.828Z,4.20
2022-11-23T22:56:24.830Z,4.20
2022-11-23T22:58:52.938Z,4.10
2022-11-23T23:01:21.659Z,4.10
2022-11-23T23:03:49.866Z,4.20
2022-11-23T23:06:20.533Z,4.20
2022-11-23T23:08:48.950Z,4.10
2022-11-23T23:11:17.017Z,4.10
2022-11-23T23:13:45.052Z,4.10
2022-11-23T23:16:13.427Z,4.10
2022-11-23T23:18:41.863Z,4.10
2022-11-23T23:21:11.078Z,4.10
2022-11-23T23:23:40.781Z,4.00
2022-11-23T23:26:08.937Z,4.00
2022-11-23T23:28:36.969Z,4.00
2022-11-23T23:31:05.896Z,4.10
2022-11-23T23:33:33.945Z,4.00
2022-11-23T23:36:05.069Z,4.00
2022-11-23T23:38:33.277Z,4.00
2022-11-23T23:41:02.704Z,4.00
2022-11-23T23:43:30.861Z,4.00
2022-11-23T23:45:59.498Z,4.00
2022-11-23T23:48:31.054Z,3.90
2022-11-23T23:50:59.111Z,4.00
2022-11-23T23:53:27.128Z,3.90
2022-11-23T23:55:58.559Z,4.00
2022-11-23T23:58:27.951Z,4.00
